sensor_id;sensor_type;location;lat;lon;timestamp;temperature;humidity
18575;DHT22;9417;16.484;102.872;2023-08-31T00:00:04;26.60;99.90
18575;DHT22;9417;16.484;102.872;2023-08-31T00:02:14;26.60;99.90
18575;DHT22;9417;16.484;102.872;2023-08-31T00:04:21;26.70;99.90
18575;DHT22;9417;16.484;102.872;2023-08-31T00:06:28;26.60;99.90
18575;DHT22;9417;16.484;102.872;2023-08-31T00:08:36;26.60;99.90
18575;DHT22;9417;16.484;102.872;2023-08-31T00:10:44;26.60;99.90
18575;DHT22;9417;16.484;102.872;2023-08-31T00:12:50;26.60;99.90
18575;DHT22;9417;16.484;102.872;2023-08-31T00:14:57;26.60;99.90
18575;DHT22;9417;16.484;102.872;2023-08-31T00:17:04;26.60;99.90
18575;DHT22;9417;16.484;102.872;2023-08-31T00:19:12;26.70;99.90
18575;DHT22;9417;16.484;102.872;2023-08-31T00:21:19;26.70;99.90
18575;DHT22;9417;16.484;102.872;2023-08-31T00:23:27;26.70;99.90
18575;DHT22;9417;16.484;102.872;2023-08-31T00:25:33;26.70;99.90
18575;DHT22;9417;16.484;102.872;2023-08-31T00:27:42;26.70;99.90
18575;DHT22;9417;16.484;102.872;2023-08-31T00:29:51;26.70;99.90
18575;DHT22;9417;16.484;102.872;2023-08-31T00:32:00;26.70;99.90
18575;DHT22;9417;16.484;102.872;2023-08-31T00:34:08;26.70;99.90
18575;DHT22;9417;16.484;102.872;2023-08-31T00:36:22;26.80;99.90
18575;DHT22;9417;16.484;102.872;2023-08-31T00:38:29;26.80;99.90
18575;DHT22;9417;16.484;102.872;2023-08-31T00:40:39;26.90;99.90
18575;DHT22;9417;16.484;102.872;2023-08-31T00:42:49;26.90;99.90
18575;DHT22;9417;16.484;102.872;2023-08-31T00:44:56;27.00;99.90
18575;DHT22;9417;16.484;102.872;2023-08-31T00:47:04;27.10;99.90
18575;DHT22;9417;16.484;102.872;2023-08-31T00:49:12;27.10;99.90
18575;DHT22;9417;16.484;102.872;2023-08-31T00:51:20;27.10;99.90
18575;DHT22;9417;16.484;102.872;2023-08-31T00:53:28;27.20;99.60
18575;DHT22;9417;16.484;102.872;2023-08-31T00:55:36;27.30;99.50
18575;DHT22;9417;16.484;102.872;2023-08-31T00:57:45;27.30;99.40
18575;DHT22;9417;16.484;102.872;2023-08-31T00:59:54;27.30;99.30
18575;DHT22;9417;16.484;102.872;2023-08-31T01:02:05;27.30;99.10
18575;DHT22;9417;16.484;102.872;2023-08-31T01:04:18;27.30;99.10
18575;DHT22;9417;16.484;102.872;2023-08-31T01:06:39;27.30;98.90
18575;DHT22;9417;16.484;102.872;2023-08-31T01:08:52;27.30;99.10
18575;DHT22;9417;16.484;102.872;2023-08-31T01:11:10;27.40;99.20
18575;DHT22;9417;16.484;102.872;2023-08-31T01:13:24;27.30;99.30
18575;DHT22;9417;16.484;102.872;2023-08-31T01:15:33;27.30;99.30
18575;DHT22;9417;16.484;102.872;2023-08-31T01:17:44;27.30;99.60
18575;DHT22;9417;16.484;102.872;2023-08-31T01:19:52;27.30;99.80
18575;DHT22;9417;16.484;102.872;2023-08-31T01:22:03;27.30;99.80
18575;DHT22;9417;16.484;102.872;2023-08-31T01:24:14;27.30;99.90
18575;DHT22;9417;16.484;102.872;2023-08-31T01:26:22;27.30;99.60
18575;DHT22;9417;16.484;102.872;2023-08-31T01:28:29;27.40;99.30
18575;DHT22;9417;16.484;102.872;2023-08-31T01:30:36;27.50;99.10
18575;DHT22;9417;16.484;102.872;2023-08-31T01:32:45;27.50;99.00
18575;DHT22;9417;16.484;102.872;2023-08-31T01:34:52;27.50;98.70
18575;DHT22;9417;16.484;102.872;2023-08-31T01:37:07;27.50;98.50
18575;DHT22;9417;16.484;102.872;2023-08-31T01:39:23;27.60;98.40
18575;DHT22;9417;16.484;102.872;2023-08-31T01:41:35;27.60;98.20
18575;DHT22;9417;16.484;102.872;2023-08-31T01:43:43;27.60;98.20
18575;DHT22;9417;16.484;102.872;2023-08-31T01:45:52;27.60;98.00
18575;DHT22;9417;16.484;102.872;2023-08-31T01:48:00;27.60;98.00
18575;DHT22;9417;16.484;102.872;2023-08-31T01:50:08;27.70;98.00
18575;DHT22;9417;16.484;102.872;2023-08-31T01:52:15;27.80;98.30
18575;DHT22;9417;16.484;102.872;2023-08-31T01:54:24;27.80;98.30
18575;DHT22;9417;16.484;102.872;2023-08-31T01:56:31;27.90;98.10
18575;DHT22;9417;16.484;102.872;2023-08-31T01:58:39;28.10;97.80
18575;DHT22;9417;16.484;102.872;2023-08-31T02:00:46;28.20;97.40
18575;DHT22;9417;16.484;102.872;2023-08-31T02:02:53;28.30;97.10
18575;DHT22;9417;16.484;102.872;2023-08-31T02:05:01;28.30;96.70
18575;DHT22;9417;16.484;102.872;2023-08-31T02:07:09;28.30;96.60
18575;DHT22;9417;16.484;102.872;2023-08-31T02:09:16;28.30;96.50
18575;DHT22;9417;16.484;102.872;2023-08-31T02:11:25;28.30;96.40
18575;DHT22;9417;16.484;102.872;2023-08-31T02:13:32;28.30;96.50
18575;DHT22;9417;16.484;102.872;2023-08-31T02:15:39;28.20;96.50
18575;DHT22;9417;16.484;102.872;2023-08-31T02:17:46;28.20;96.70
18575;DHT22;9417;16.484;102.872;2023-08-31T02:19:52;28.20;96.70
18575;DHT22;9417;16.484;102.872;2023-08-31T02:22:00;28.10;96.50
18575;DHT22;9417;16.484;102.872;2023-08-31T02:24:08;28.00;95.90
18575;DHT22;9417;16.484;102.872;2023-08-31T02:26:16;27.90;96.70
18575;DHT22;9417;16.484;102.872;2023-08-31T02:28:25;27.60;97.50
18575;DHT22;9417;16.484;102.872;2023-08-31T02:30:33;27.50;98.30
18575;DHT22;9417;16.484;102.872;2023-08-31T02:32:41;27.50;98.90
18575;DHT22;9417;16.484;102.872;2023-08-31T02:34:50;27.50;99.30
18575;DHT22;9417;16.484;102.872;2023-08-31T02:36:57;27.50;99.30
18575;DHT22;9417;16.484;102.872;2023-08-31T02:39:04;27.60;99.30
18575;DHT22;9417;16.484;102.872;2023-08-31T02:41:12;27.60;99.10
18575;DHT22;9417;16.484;102.872;2023-08-31T02:43:19;27.60;99.10
18575;DHT22;9417;16.484;102.872;2023-08-31T02:45:28;27.60;99.10
18575;DHT22;9417;16.484;102.872;2023-08-31T02:47:35;27.60;99.10
18575;DHT22;9417;16.484;102.872;2023-08-31T02:49:42;27.60;99.00
18575;DHT22;9417;16.484;102.872;2023-08-31T02:51:50;27.70;99.00
18575;DHT22;9417;16.484;102.872;2023-08-31T02:53:57;27.70;99.00
18575;DHT22;9417;16.484;102.872;2023-08-31T02:56:04;27.70;98.90
18575;DHT22;9417;16.484;102.872;2023-08-31T02:58:12;27.70;99.00
18575;DHT22;9417;16.484;102.872;2023-08-31T03:00:19;27.70;99.10
18575;DHT22;9417;16.484;102.872;2023-08-31T03:02:29;27.80;99.40
18575;DHT22;9417;16.484;102.872;2023-08-31T03:04:36;27.90;99.30
18575;DHT22;9417;16.484;102.872;2023-08-31T03:06:43;28.00;99.20
18575;DHT22;9417;16.484;102.872;2023-08-31T03:08:50;28.10;98.60
18575;DHT22;9417;16.484;102.872;2023-08-31T03:10:57;28.20;97.80
18575;DHT22;9417;16.484;102.872;2023-08-31T03:13:05;28.20;96.70
18575;DHT22;9417;16.484;102.872;2023-08-31T03:15:13;28.20;95.20
18575;DHT22;9417;16.484;102.872;2023-08-31T03:17:19;28.20;95.60
18575;DHT22;9417;16.484;102.872;2023-08-31T03:19:29;28.20;95.60
18575;DHT22;9417;16.484;102.872;2023-08-31T03:21:36;28.20;95.60
18575;DHT22;9417;16.484;102.872;2023-08-31T03:23:44;28.20;95.70
18575;DHT22;9417;16.484;102.872;2023-08-31T03:25:51;28.20;95.50
18575;DHT22;9417;16.484;102.872;2023-08-31T03:28:02;28.20;95.20
18575;DHT22;9417;16.484;102.872;2023-08-31T03:30:10;28.10;95.10
18575;DHT22;9417;16.484;102.872;2023-08-31T03:32:18;28.10;95.20
18575;DHT22;9417;16.484;102.872;2023-08-31T03:34:30;28.10;95.10
18575;DHT22;9417;16.484;102.872;2023-08-31T03:36:37;28.20;95.40
18575;DHT22;9417;16.484;102.872;2023-08-31T03:38:45;28.10;95.70
18575;DHT22;9417;16.484;102.872;2023-08-31T03:40:55;28.10;96.00
18575;DHT22;9417;16.484;102.872;2023-08-31T03:43:02;28.10;96.10
18575;DHT22;9417;16.484;102.872;2023-08-31T03:45:10;28.10;95.90
18575;DHT22;9417;16.484;102.872;2023-08-31T03:47:17;28.20;95.70
18575;DHT22;9417;16.484;102.872;2023-08-31T03:49:24;28.20;95.60
18575;DHT22;9417;16.484;102.872;2023-08-31T03:51:33;28.20;95.50
18575;DHT22;9417;16.484;102.872;2023-08-31T03:53:40;28.20;95.50
18575;DHT22;9417;16.484;102.872;2023-08-31T03:55:48;28.30;95.40
18575;DHT22;9417;16.484;102.872;2023-08-31T03:57:56;28.30;95.60
18575;DHT22;9417;16.484;102.872;2023-08-31T04:00:04;28.30;95.90
18575;DHT22;9417;16.484;102.872;2023-08-31T04:02:16;28.30;95.90
18575;DHT22;9417;16.484;102.872;2023-08-31T04:04:23;28.30;96.20
18575;DHT22;9417;16.484;102.872;2023-08-31T04:06:33;28.30;96.20
18575;DHT22;9417;16.484;102.872;2023-08-31T04:08:41;28.30;96.50
18575;DHT22;9417;16.484;102.872;2023-08-31T04:10:48;28.30;96.40
18575;DHT22;9417;16.484;102.872;2023-08-31T04:12:56;28.30;96.30
18575;DHT22;9417;16.484;102.872;2023-08-31T04:15:05;28.40;96.30
18575;DHT22;9417;16.484;102.872;2023-08-31T04:17:12;28.40;96.30
18575;DHT22;9417;16.484;102.872;2023-08-31T04:19:19;28.40;96.30
18575;DHT22;9417;16.484;102.872;2023-08-31T04:21:27;28.40;96.20
18575;DHT22;9417;16.484;102.872;2023-08-31T04:23:35;28.40;96.40
18575;DHT22;9417;16.484;102.872;2023-08-31T04:25:42;28.30;96.00
18575;DHT22;9417;16.484;102.872;2023-08-31T04:27:50;28.30;95.80
18575;DHT22;9417;16.484;102.872;2023-08-31T04:29:57;28.30;95.60
18575;DHT22;9417;16.484;102.872;2023-08-31T04:32:05;28.30;95.50
18575;DHT22;9417;16.484;102.872;2023-08-31T04:34:12;28.30;95.50
18575;DHT22;9417;16.484;102.872;2023-08-31T04:36:19;28.40;95.60
18575;DHT22;9417;16.484;102.872;2023-08-31T04:38:26;28.40;95.40
18575;DHT22;9417;16.484;102.872;2023-08-31T04:40:35;28.40;95.40
18575;DHT22;9417;16.484;102.872;2023-08-31T04:42:42;28.50;95.40
18575;DHT22;9417;16.484;102.872;2023-08-31T04:44:50;28.50;95.40
18575;DHT22;9417;16.484;102.872;2023-08-31T04:46:57;28.60;95.40
18575;DHT22;9417;16.484;102.872;2023-08-31T04:49:04;28.60;95.30
18575;DHT22;9417;16.484;102.872;2023-08-31T04:51:28;28.60;95.10
18575;DHT22;9417;16.484;102.872;2023-08-31T04:53:36;28.70;94.80
18575;DHT22;9417;16.484;102.872;2023-08-31T04:55:44;28.80;94.70
18575;DHT22;9417;16.484;102.872;2023-08-31T04:57:51;28.90;94.60
18575;DHT22;9417;16.484;102.872;2023-08-31T04:59:58;28.90;94.60
18575;DHT22;9417;16.484;102.872;2023-08-31T05:02:05;28.90;94.50
18575;DHT22;9417;16.484;102.872;2023-08-31T05:04:12;28.90;94.60
18575;DHT22;9417;16.484;102.872;2023-08-31T05:06:18;28.90;94.30
18575;DHT22;9417;16.484;102.872;2023-08-31T05:08:26;29.00;93.80
18575;DHT22;9417;16.484;102.872;2023-08-31T05:10:33;29.00;93.50
18575;DHT22;9417;16.484;102.872;2023-08-31T05:12:42;29.10;93.40
18575;DHT22;9417;16.484;102.872;2023-08-31T05:14:49;29.10;93.10
18575;DHT22;9417;16.484;102.872;2023-08-31T05:16:56;29.10;92.90
18575;DHT22;9417;16.484;102.872;2023-08-31T05:19:03;29.10;91.70
18575;DHT22;9417;16.484;102.872;2023-08-31T05:21:10;29.20;91.00
18575;DHT22;9417;16.484;102.872;2023-08-31T05:23:17;29.20;91.20
18575;DHT22;9417;16.484;102.872;2023-08-31T05:25:24;29.20;91.20
18575;DHT22;9417;16.484;102.872;2023-08-31T05:27:31;29.20;91.00
18575;DHT22;9417;16.484;102.872;2023-08-31T05:29:40;29.20;91.40
18575;DHT22;9417;16.484;102.872;2023-08-31T05:31:47;29.20;91.30
18575;DHT22;9417;16.484;102.872;2023-08-31T05:33:54;29.10;90.40
18575;DHT22;9417;16.484;102.872;2023-08-31T05:36:02;29.10;90.20
18575;DHT22;9417;16.484;102.872;2023-08-31T05:38:10;29.10;90.50
18575;DHT22;9417;16.484;102.872;2023-08-31T05:40:17;29.10;90.70
18575;DHT22;9417;16.484;102.872;2023-08-31T05:42:24;29.10;91.00
18575;DHT22;9417;16.484;102.872;2023-08-31T05:44:31;29.00;91.50
18575;DHT22;9417;16.484;102.872;2023-08-31T05:46:40;29.00;91.90
18575;DHT22;9417;16.484;102.872;2023-08-31T05:48:47;29.00;92.30
18575;DHT22;9417;16.484;102.872;2023-08-31T05:50:54;29.00;92.60
18575;DHT22;9417;16.484;102.872;2023-08-31T05:53:01;28.90;92.70
18575;DHT22;9417;16.484;102.872;2023-08-31T05:55:09;28.90;92.80
18575;DHT22;9417;16.484;102.872;2023-08-31T05:57:19;28.90;92.90
18575;DHT22;9417;16.484;102.872;2023-08-31T05:59:27;29.00;93.00
18575;DHT22;9417;16.484;102.872;2023-08-31T06:01:34;29.00;93.10
18575;DHT22;9417;16.484;102.872;2023-08-31T06:03:44;29.10;93.00
18575;DHT22;9417;16.484;102.872;2023-08-31T06:05:51;29.20;92.80
18575;DHT22;9417;16.484;102.872;2023-08-31T06:07:58;29.30;92.50
18575;DHT22;9417;16.484;102.872;2023-08-31T06:10:06;29.40;92.30
18575;DHT22;9417;16.484;102.872;2023-08-31T06:12:13;29.50;91.90
18575;DHT22;9417;16.484;102.872;2023-08-31T06:14:20;29.60;91.70
18575;DHT22;9417;16.484;102.872;2023-08-31T06:16:27;29.70;91.20
18575;DHT22;9417;16.484;102.872;2023-08-31T06:18:34;29.70;90.30
18575;DHT22;9417;16.484;102.872;2023-08-31T06:20:43;29.70;90.20
18575;DHT22;9417;16.484;102.872;2023-08-31T06:22:50;29.70;89.60
18575;DHT22;9417;16.484;102.872;2023-08-31T06:24:57;29.70;89.70
18575;DHT22;9417;16.484;102.872;2023-08-31T06:27:05;29.70;89.20
18575;DHT22;9417;16.484;102.872;2023-08-31T06:29:12;29.70;89.10
18575;DHT22;9417;16.484;102.872;2023-08-31T06:31:19;29.70;89.00
18575;DHT22;9417;16.484;102.872;2023-08-31T06:33:26;29.60;88.90
18575;DHT22;9417;16.484;102.872;2023-08-31T06:35:32;29.60;89.30
18575;DHT22;9417;16.484;102.872;2023-08-31T06:37:41;29.70;89.60
18575;DHT22;9417;16.484;102.872;2023-08-31T06:39:50;29.70;89.80
18575;DHT22;9417;16.484;102.872;2023-08-31T06:41:57;29.70;89.90
18575;DHT22;9417;16.484;102.872;2023-08-31T06:44:06;29.70;89.90
18575;DHT22;9417;16.484;102.872;2023-08-31T06:46:13;29.70;88.70
18575;DHT22;9417;16.484;102.872;2023-08-31T06:48:28;29.80;88.10
18575;DHT22;9417;16.484;102.872;2023-08-31T06:50:35;29.80;87.00
18575;DHT22;9417;16.484;102.872;2023-08-31T06:52:42;29.80;85.80
18575;DHT22;9417;16.484;102.872;2023-08-31T06:54:51;29.90;85.20
18575;DHT22;9417;16.484;102.872;2023-08-31T06:57:00;29.90;84.10
18575;DHT22;9417;16.484;102.872;2023-08-31T06:59:07;30.00;84.20
18575;DHT22;9417;16.484;102.872;2023-08-31T07:01:14;30.00;82.40
18575;DHT22;9417;16.484;102.872;2023-08-31T07:03:21;30.00;82.90
18575;DHT22;9417;16.484;102.872;2023-08-31T07:05:33;29.90;82.80
18575;DHT22;9417;16.484;102.872;2023-08-31T07:07:43;30.00;82.70
18575;DHT22;9417;16.484;102.872;2023-08-31T07:09:50;30.00;83.10
18575;DHT22;9417;16.484;102.872;2023-08-31T07:11:59;30.10;83.10
18575;DHT22;9417;16.484;102.872;2023-08-31T07:14:07;30.10;83.00
18575;DHT22;9417;16.484;102.872;2023-08-31T07:16:14;30.30;82.30
18575;DHT22;9417;16.484;102.872;2023-08-31T07:18:21;30.40;81.20
18575;DHT22;9417;16.484;102.872;2023-08-31T07:20:28;30.50;80.10
18575;DHT22;9417;16.484;102.872;2023-08-31T07:22:36;30.50;79.40
18575;DHT22;9417;16.484;102.872;2023-08-31T07:24:44;30.50;79.50
18575;DHT22;9417;16.484;102.872;2023-08-31T07:26:52;30.60;79.70
18575;DHT22;9417;16.484;102.872;2023-08-31T07:28:59;30.70;78.60
18575;DHT22;9417;16.484;102.872;2023-08-31T07:31:08;30.70;78.20
18575;DHT22;9417;16.484;102.872;2023-08-31T07:33:16;30.70;78.60
18575;DHT22;9417;16.484;102.872;2023-08-31T07:35:34;30.70;78.70
18575;DHT22;9417;16.484;102.872;2023-08-31T07:37:41;30.70;78.90
18575;DHT22;9417;16.484;102.872;2023-08-31T07:39:50;30.60;79.20
18575;DHT22;9417;16.484;102.872;2023-08-31T07:41:58;30.60;79.00
18575;DHT22;9417;16.484;102.872;2023-08-31T07:44:05;30.70;78.90
18575;DHT22;9417;16.484;102.872;2023-08-31T07:46:12;30.70;78.10
18575;DHT22;9417;16.484;102.872;2023-08-31T07:48:20;30.70;77.30
18575;DHT22;9417;16.484;102.872;2023-08-31T07:50:27;30.60;76.60
18575;DHT22;9417;16.484;102.872;2023-08-31T07:52:34;30.60;77.10
18575;DHT22;9417;16.484;102.872;2023-08-31T07:54:42;30.50;77.20
18575;DHT22;9417;16.484;102.872;2023-08-31T07:56:51;30.50;77.30
18575;DHT22;9417;16.484;102.872;2023-08-31T07:58:58;30.50;78.00
18575;DHT22;9417;16.484;102.872;2023-08-31T08:01:05;30.60;77.40
18575;DHT22;9417;16.484;102.872;2023-08-31T08:03:13;30.60;76.40
18575;DHT22;9417;16.484;102.872;2023-08-31T08:05:20;30.60;76.40
18575;DHT22;9417;16.484;102.872;2023-08-31T08:07:27;30.60;76.40
18575;DHT22;9417;16.484;102.872;2023-08-31T08:09:34;30.70;76.50
18575;DHT22;9417;16.484;102.872;2023-08-31T08:11:41;30.70;76.70
18575;DHT22;9417;16.484;102.872;2023-08-31T08:13:50;30.90;76.20
18575;DHT22;9417;16.484;102.872;2023-08-31T08:15:57;30.90;75.60
18575;DHT22;9417;16.484;102.872;2023-08-31T08:18:05;31.00;75.50
18575;DHT22;9417;16.484;102.872;2023-08-31T08:20:13;31.00;74.90
18575;DHT22;9417;16.484;102.872;2023-08-31T08:22:18;30.90;75.40
18575;DHT22;9417;16.484;102.872;2023-08-31T08:24:25;30.90;75.80
18575;DHT22;9417;16.484;102.872;2023-08-31T08:26:32;30.80;75.80
18575;DHT22;9417;16.484;102.872;2023-08-31T08:28:39;30.80;76.10
18575;DHT22;9417;16.484;102.872;2023-08-31T08:30:48;30.70;75.20
18575;DHT22;9417;16.484;102.872;2023-08-31T08:32:55;30.70;74.20
18575;DHT22;9417;16.484;102.872;2023-08-31T08:35:04;30.70;75.00
18575;DHT22;9417;16.484;102.872;2023-08-31T08:37:11;30.80;74.00
18575;DHT22;9417;16.484;102.872;2023-08-31T08:39:18;30.80;73.90
18575;DHT22;9417;16.484;102.872;2023-08-31T08:41:25;30.90;74.60
18575;DHT22;9417;16.484;102.872;2023-08-31T08:43:34;30.90;74.40
18575;DHT22;9417;16.484;102.872;2023-08-31T08:45:42;30.90;74.90
18575;DHT22;9417;16.484;102.872;2023-08-31T08:47:53;30.90;75.10
18575;DHT22;9417;16.484;102.872;2023-08-31T08:50:01;30.80;74.00
18575;DHT22;9417;16.484;102.872;2023-08-31T08:52:09;30.80;74.70
18575;DHT22;9417;16.484;102.872;2023-08-31T08:54:17;30.90;74.90
18575;DHT22;9417;16.484;102.872;2023-08-31T08:56:24;30.90;75.60
18575;DHT22;9417;16.484;102.872;2023-08-31T08:58:32;31.00;75.90
18575;DHT22;9417;16.484;102.872;2023-08-31T09:00:40;31.00;75.20
18575;DHT22;9417;16.484;102.872;2023-08-31T09:02:48;31.00;75.20
18575;DHT22;9417;16.484;102.872;2023-08-31T09:04:56;31.10;75.00
18575;DHT22;9417;16.484;102.872;2023-08-31T09:07:04;31.10;75.40
18575;DHT22;9417;16.484;102.872;2023-08-31T09:09:10;31.10;76.00
18575;DHT22;9417;16.484;102.872;2023-08-31T09:11:20;31.00;75.90
18575;DHT22;9417;16.484;102.872;2023-08-31T09:13:29;31.10;76.10
18575;DHT22;9417;16.484;102.872;2023-08-31T09:15:43;31.10;75.40
18575;DHT22;9417;16.484;102.872;2023-08-31T09:17:53;31.20;75.20
18575;DHT22;9417;16.484;102.872;2023-08-31T09:20:03;31.20;75.30
18575;DHT22;9417;16.484;102.872;2023-08-31T09:22:11;31.10;74.70
18575;DHT22;9417;16.484;102.872;2023-08-31T09:24:18;31.00;75.60
18575;DHT22;9417;16.484;102.872;2023-08-31T09:26:25;31.00;76.60
18575;DHT22;9417;16.484;102.872;2023-08-31T09:28:31;30.90;77.20
18575;DHT22;9417;16.484;102.872;2023-08-31T09:30:39;30.90;77.40
18575;DHT22;9417;16.484;102.872;2023-08-31T09:32:53;31.00;77.70
18575;DHT22;9417;16.484;102.872;2023-08-31T09:35:02;31.00;77.60
18575;DHT22;9417;16.484;102.872;2023-08-31T09:37:20;31.10;77.40
18575;DHT22;9417;16.484;102.872;2023-08-31T09:39:36;31.00;77.20
18575;DHT22;9417;16.484;102.872;2023-08-31T09:42:00;31.00;77.40
18575;DHT22;9417;16.484;102.872;2023-08-31T09:44:18;30.90;77.50
18575;DHT22;9417;16.484;102.872;2023-08-31T09:46:25;31.00;77.70
18575;DHT22;9417;16.484;102.872;2023-08-31T09:48:33;30.90;77.90
18575;DHT22;9417;16.484;102.872;2023-08-31T09:50:44;30.90;77.10
18575;DHT22;9417;16.484;102.872;2023-08-31T09:52:55;30.90;76.50
18575;DHT22;9417;16.484;102.872;2023-08-31T09:55:03;30.90;77.00
18575;DHT22;9417;16.484;102.872;2023-08-31T09:57:12;30.90;77.40
18575;DHT22;9417;16.484;102.872;2023-08-31T09:59:19;30.90;77.60
18575;DHT22;9417;16.484;102.872;2023-08-31T10:01:26;30.90;77.80
18575;DHT22;9417;16.484;102.872;2023-08-31T10:03:34;31.00;77.30
18575;DHT22;9417;16.484;102.872;2023-08-31T10:05:43;30.90;77.20
18575;DHT22;9417;16.484;102.872;2023-08-31T10:07:51;30.90;77.50
18575;DHT22;9417;16.484;102.872;2023-08-31T10:09:59;30.90;78.40
18575;DHT22;9417;16.484;102.872;2023-08-31T10:12:07;30.80;79.00
18575;DHT22;9417;16.484;102.872;2023-08-31T10:14:15;30.70;79.40
18575;DHT22;9417;16.484;102.872;2023-08-31T10:16:26;30.60;79.20
18575;DHT22;9417;16.484;102.872;2023-08-31T10:18:35;30.60;79.20
18575;DHT22;9417;16.484;102.872;2023-08-31T10:20:45;30.50;79.40
18575;DHT22;9417;16.484;102.872;2023-08-31T10:22:52;30.40;79.60
18575;DHT22;9417;16.484;102.872;2023-08-31T10:25:00;30.40;79.80
18575;DHT22;9417;16.484;102.872;2023-08-31T10:27:20;30.30;78.80
18575;DHT22;9417;16.484;102.872;2023-08-31T10:29:28;30.30;77.20
18575;DHT22;9417;16.484;102.872;2023-08-31T10:31:35;30.30;77.20
18575;DHT22;9417;16.484;102.872;2023-08-31T10:33:43;30.30;77.40
18575;DHT22;9417;16.484;102.872;2023-08-31T10:35:54;30.30;78.00
18575;DHT22;9417;16.484;102.872;2023-08-31T10:38:14;30.20;78.60
18575;DHT22;9417;16.484;102.872;2023-08-31T10:40:21;30.20;79.10
18575;DHT22;9417;16.484;102.872;2023-08-31T10:42:28;30.10;79.80
18575;DHT22;9417;16.484;102.872;2023-08-31T10:44:35;30.10;80.30
18575;DHT22;9417;16.484;102.872;2023-08-31T10:46:45;30.00;80.70
18575;DHT22;9417;16.484;102.872;2023-08-31T10:48:54;30.00;80.60
18575;DHT22;9417;16.484;102.872;2023-08-31T10:51:03;30.00;80.90
18575;DHT22;9417;16.484;102.872;2023-08-31T10:53:10;29.90;81.40
18575;DHT22;9417;16.484;102.872;2023-08-31T10:55:18;29.90;81.60
18575;DHT22;9417;16.484;102.872;2023-08-31T10:57:30;29.90;82.10
18575;DHT22;9417;16.484;102.872;2023-08-31T10:59:47;29.90;82.20
18575;DHT22;9417;16.484;102.872;2023-08-31T11:01:56;29.90;82.40
18575;DHT22;9417;16.484;102.872;2023-08-31T11:04:09;29.80;82.40
18575;DHT22;9417;16.484;102.872;2023-08-31T11:06:19;29.90;82.10
18575;DHT22;9417;16.484;102.872;2023-08-31T11:08:27;29.80;81.80
18575;DHT22;9417;16.484;102.872;2023-08-31T11:10:34;29.80;82.00
18575;DHT22;9417;16.484;102.872;2023-08-31T11:12:43;29.80;81.90
18575;DHT22;9417;16.484;102.872;2023-08-31T11:14:50;29.80;81.70
18575;DHT22;9417;16.484;102.872;2023-08-31T11:16:57;29.70;81.60
18575;DHT22;9417;16.484;102.872;2023-08-31T11:19:05;29.70;81.40
18575;DHT22;9417;16.484;102.872;2023-08-31T11:21:14;29.70;81.50
18575;DHT22;9417;16.484;102.872;2023-08-31T11:23:22;29.70;82.70
18575;DHT22;9417;16.484;102.872;2023-08-31T11:25:31;29.60;83.00
18575;DHT22;9417;16.484;102.872;2023-08-31T11:27:38;29.60;83.30
18575;DHT22;9417;16.484;102.872;2023-08-31T11:29:46;29.60;83.20
18575;DHT22;9417;16.484;102.872;2023-08-31T11:31:55;29.60;83.40
18575;DHT22;9417;16.484;102.872;2023-08-31T11:34:05;29.60;83.10
18575;DHT22;9417;16.484;102.872;2023-08-31T11:36:12;29.60;83.20
18575;DHT22;9417;16.484;102.872;2023-08-31T11:38:24;29.50;83.40
18575;DHT22;9417;16.484;102.872;2023-08-31T11:40:32;29.50;83.40
18575;DHT22;9417;16.484;102.872;2023-08-31T11:42:39;29.50;83.50
18575;DHT22;9417;16.484;102.872;2023-08-31T11:44:47;29.50;83.90
18575;DHT22;9417;16.484;102.872;2023-08-31T11:46:55;29.50;83.90
18575;DHT22;9417;16.484;102.872;2023-08-31T11:49:03;29.50;83.80
18575;DHT22;9417;16.484;102.872;2023-08-31T11:51:11;29.40;83.80
18575;DHT22;9417;16.484;102.872;2023-08-31T11:53:19;29.40;84.00
18575;DHT22;9417;16.484;102.872;2023-08-31T11:55:28;29.40;84.10
18575;DHT22;9417;16.484;102.872;2023-08-31T11:57:35;29.40;84.30
18575;DHT22;9417;16.484;102.872;2023-08-31T11:59:43;29.40;84.40
18575;DHT22;9417;16.484;102.872;2023-08-31T12:01:51;29.30;84.50
18575;DHT22;9417;16.484;102.872;2023-08-31T12:03:58;29.30;84.70
18575;DHT22;9417;16.484;102.872;2023-08-31T12:06:05;29.30;85.20
18575;DHT22;9417;16.484;102.872;2023-08-31T12:08:12;29.30;85.90
18575;DHT22;9417;16.484;102.872;2023-08-31T12:10:20;29.30;86.10
18575;DHT22;9417;16.484;102.872;2023-08-31T12:12:30;29.30;86.30
18575;DHT22;9417;16.484;102.872;2023-08-31T12:14:39;29.20;86.80
18575;DHT22;9417;16.484;102.872;2023-08-31T12:16:46;29.20;86.90
18575;DHT22;9417;16.484;102.872;2023-08-31T12:18:58;29.20;87.20
18575;DHT22;9417;16.484;102.872;2023-08-31T12:21:07;29.20;87.20
18575;DHT22;9417;16.484;102.872;2023-08-31T12:23:14;29.20;86.90
18575;DHT22;9417;16.484;102.872;2023-08-31T12:25:22;29.10;86.80
18575;DHT22;9417;16.484;102.872;2023-08-31T12:27:30;29.20;86.80
18575;DHT22;9417;16.484;102.872;2023-08-31T12:29:38;29.20;87.00
18575;DHT22;9417;16.484;102.872;2023-08-31T12:31:45;29.20;87.50
18575;DHT22;9417;16.484;102.872;2023-08-31T12:33:52;29.10;87.50
18575;DHT22;9417;16.484;102.872;2023-08-31T12:36:01;29.10;87.10
18575;DHT22;9417;16.484;102.872;2023-08-31T12:38:08;29.10;86.80
18575;DHT22;9417;16.484;102.872;2023-08-31T12:40:14;29.10;87.00
18575;DHT22;9417;16.484;102.872;2023-08-31T12:42:24;29.10;87.10
18575;DHT22;9417;16.484;102.872;2023-08-31T12:44:33;29.00;86.70
18575;DHT22;9417;16.484;102.872;2023-08-31T12:46:40;29.00;86.80
18575;DHT22;9417;16.484;102.872;2023-08-31T12:48:47;29.00;86.80
18575;DHT22;9417;16.484;102.872;2023-08-31T12:50:54;29.00;86.80
18575;DHT22;9417;16.484;102.872;2023-08-31T12:53:01;29.00;86.80
18575;DHT22;9417;16.484;102.872;2023-08-31T12:55:09;29.00;86.80
18575;DHT22;9417;16.484;102.872;2023-08-31T12:57:16;29.00;86.30
18575;DHT22;9417;16.484;102.872;2023-08-31T12:59:24;29.00;86.60
18575;DHT22;9417;16.484;102.872;2023-08-31T13:01:32;28.90;86.80
18575;DHT22;9417;16.484;102.872;2023-08-31T13:03:40;28.90;86.70
18575;DHT22;9417;16.484;102.872;2023-08-31T13:05:47;28.90;86.70
18575;DHT22;9417;16.484;102.872;2023-08-31T13:07:55;28.90;86.90
18575;DHT22;9417;16.484;102.872;2023-08-31T13:10:03;28.90;87.00
18575;DHT22;9417;16.484;102.872;2023-08-31T13:12:10;28.90;87.10
18575;DHT22;9417;16.484;102.872;2023-08-31T13:14:17;28.90;87.30
18575;DHT22;9417;16.484;102.872;2023-08-31T13:16:24;28.90;87.80